sensor_id;sensor_type;location;lat;lon;timestamp;P1;durP1;ratioP1;P2;durP2;ratioP2
4132;SDS011;2080;51.038;7.008;2023-04-01T00:00:30;387.23;;;215.43;;
4132;SDS011;2080;51.038;7.008;2023-04-01T00:02:58;469.33;;;383.60;;
4132;SDS011;2080;51.038;7.008;2023-04-01T00:05:25;455.73;;;324.63;;
4132;SDS011;2080;51.038;7.008;2023-04-01T00:07:52;370.83;;;197.33;;
4132;SDS011;2080;51.038;7.008;2023-04-01T00:10:20;358.93;;;158.77;;
4132;SDS011;2080;51.038;7.008;2023-04-01T00:12:48;354.00;;;173.63;;
4132;SDS011;2080;51.038;7.008;2023-04-01T00:15:15;357.43;;;180.83;;
4132;SDS011;2080;51.038;7.008;2023-04-01T00:17:43;456.97;;;358.33;;
4132;SDS011;2080;51.038;7.008;2023-04-01T00:20:08;351.13;;;169.83;;
4132;SDS011;2080;51.038;7.008;2023-04-01T00:22:34;360.97;;;174.53;;
4132;SDS011;2080;51.038;7.008;2023-04-01T00:25:02;324.93;;;119.77;;
4132;SDS011;2080;51.038;7.008;2023-04-01T00:27:31;323.50;;;110.10;;
4132;SDS011;2080;51.038;7.008;2023-04-01T00:29:56;346.60;;;163.17;;
4132;SDS011;2080;51.038;7.008;2023-04-01T00:32:21;311.93;;;99.77;;
4132;SDS011;2080;51.038;7.008;2023-04-01T00:34:49;314.50;;;92.87;;
4132;SDS011;2080;51.038;7.008;2023-04-01T00:37:16;315.30;;;85.93;;
4132;SDS011;2080;51.038;7.008;2023-04-01T00:39:42;343.10;;;167.30;;
4132;SDS011;2080;51.038;7.008;2023-04-01T00:42:08;351.53;;;168.87;;
4132;SDS011;2080;51.038;7.008;2023-04-01T00:44:36;336.27;;;129.13;;
4132;SDS011;2080;51.038;7.008;2023-04-01T00:47:02;323.00;;;101.47;;
4132;SDS011;2080;51.038;7.008;2023-04-01T00:49:32;343.90;;;144.10;;
4132;SDS011;2080;51.038;7.008;2023-04-01T00:52:02;413.23;;;284.63;;
4132;SDS011;2080;51.038;7.008;2023-04-01T00:54:31;360.50;;;178.77;;
4132;SDS011;2080;51.038;7.008;2023-04-01T00:56:59;398.83;;;262.77;;
4132;SDS011;2080;51.038;7.008;2023-04-01T00:59:32;362.30;;;189.57;;
4132;SDS011;2080;51.038;7.008;2023-04-01T01:02:05;316.57;;;98.37;;
4132;SDS011;2080;51.038;7.008;2023-04-01T01:04:33;426.63;;;327.60;;
4132;SDS011;2080;51.038;7.008;2023-04-01T01:10:17;326.43;;;116.33;;
4132;SDS011;2080;51.038;7.008;2023-04-01T01:31:50;346.10;;;172.60;;
4132;SDS011;2080;51.038;7.008;2023-04-01T01:34:31;303.57;;;80.63;;
4132;SDS011;2080;51.038;7.008;2023-04-01T01:37:09;397.60;;;242.40;;
4132;SDS011;2080;51.038;7.008;2023-04-01T01:39:49;306.47;;;73.27;;
4132;SDS011;2080;51.038;7.008;2023-04-01T01:42:19;377.43;;;200.60;;
4132;SDS011;2080;51.038;7.008;2023-04-01T01:44:50;339.43;;;131.70;;
4132;SDS011;2080;51.038;7.008;2023-04-01T01:47:21;289.77;;;63.80;;
4132;SDS011;2080;51.038;7.008;2023-04-01T01:49:48;319.87;;;98.10;;
4132;SDS011;2080;51.038;7.008;2023-04-01T01:52:20;380.87;;;195.47;;
4132;SDS011;2080;51.038;7.008;2023-04-01T01:54:49;306.63;;;100.97;;
4132;SDS011;2080;51.038;7.008;2023-04-01T01:57:22;318.07;;;90.27;;
4132;SDS011;2080;51.038;7.008;2023-04-01T01:59:51;338.47;;;117.60;;
4132;SDS011;2080;51.038;7.008;2023-04-01T02:02:22;353.47;;;160.77;;
4132;SDS011;2080;51.038;7.008;2023-04-01T02:04:49;307.10;;;96.47;;
4132;SDS011;2080;51.038;7.008;2023-04-01T02:07:23;323.00;;;94.33;;
4132;SDS011;2080;51.038;7.008;2023-04-01T02:09:57;359.23;;;165.63;;
4132;SDS011;2080;51.038;7.008;2023-04-01T02:12:24;393.90;;;219.13;;
4132;SDS011;2080;51.038;7.008;2023-04-01T02:17:20;320.10;;;118.73;;
4132;SDS011;2080;51.038;7.008;2023-04-01T02:20:08;492.97;;;416.00;;
4132;SDS011;2080;51.038;7.008;2023-04-01T02:22:41;333.93;;;120.07;;
4132;SDS011;2080;51.038;7.008;2023-04-01T02:25:14;321.87;;;132.73;;
4132;SDS011;2080;51.038;7.008;2023-04-01T02:27:43;430.30;;;337.03;;
4132;SDS011;2080;51.038;7.008;2023-04-01T02:30:11;405.93;;;283.40;;
4132;SDS011;2080;51.038;7.008;2023-04-01T02:32:39;352.60;;;163.33;;
4132;SDS011;2080;51.038;7.008;2023-04-01T02:35:11;422.60;;;286.27;;
4132;SDS011;2080;51.038;7.008;2023-04-01T02:37:40;404.00;;;293.63;;
4132;SDS011;2080;51.038;7.008;2023-04-01T02:40:08;348.67;;;140.43;;
4132;SDS011;2080;51.038;7.008;2023-04-01T02:42:36;383.13;;;211.50;;
4132;SDS011;2080;51.038;7.008;2023-04-01T02:45:02;385.37;;;219.33;;
4132;SDS011;2080;51.038;7.008;2023-04-01T02:47:28;299.53;;;96.77;;
4132;SDS011;2080;51.038;7.008;2023-04-01T02:49:56;380.63;;;220.70;;
4132;SDS011;2080;51.038;7.008;2023-04-01T02:52:26;349.63;;;167.77;;
4132;SDS011;2080;51.038;7.008;2023-04-01T02:54:55;359.03;;;179.17;;
4132;SDS011;2080;51.038;7.008;2023-04-01T02:57:24;386.13;;;228.17;;
4132;SDS011;2080;51.038;7.008;2023-04-01T02:59:49;364.30;;;192.20;;
4132;SDS011;2080;51.038;7.008;2023-04-01T03:02:18;396.50;;;287.73;;
4132;SDS011;2080;51.038;7.008;2023-04-01T03:04:43;359.03;;;153.77;;
4132;SDS011;2080;51.038;7.008;2023-04-01T03:07:11;342.43;;;147.50;;
4132;SDS011;2080;51.038;7.008;2023-04-01T03:09:36;355.50;;;154.03;;
4132;SDS011;2080;51.038;7.008;2023-04-01T03:12:02;379.93;;;237.33;;
4132;SDS011;2080;51.038;7.008;2023-04-01T03:14:30;365.13;;;224.70;;
4132;SDS011;2080;51.038;7.008;2023-04-01T03:16:56;414.03;;;312.70;;
4132;SDS011;2080;51.038;7.008;2023-04-01T03:19:23;415.70;;;281.90;;
4132;SDS011;2080;51.038;7.008;2023-04-01T03:21:49;359.40;;;192.13;;
4132;SDS011;2080;51.038;7.008;2023-04-01T03:24:14;375.53;;;221.03;;
4132;SDS011;2080;51.038;7.008;2023-04-01T03:26:39;336.37;;;127.63;;
4132;SDS011;2080;51.038;7.008;2023-04-01T03:29:07;354.10;;;173.53;;
4132;SDS011;2080;51.038;7.008;2023-04-01T03:31:33;399.63;;;241.23;;
4132;SDS011;2080;51.038;7.008;2023-04-01T03:33:59;335.07;;;163.53;;
4132;SDS011;2080;51.038;7.008;2023-04-01T03:36:24;347.77;;;133.57;;
4132;SDS011;2080;51.038;7.008;2023-04-01T03:38:50;347.97;;;162.07;;
4132;SDS011;2080;51.038;7.008;2023-04-01T03:41:18;397.70;;;240.83;;
4132;SDS011;2080;51.038;7.008;2023-04-01T03:43:43;357.23;;;173.00;;
4132;SDS011;2080;51.038;7.008;2023-04-01T03:46:16;393.40;;;248.90;;
4132;SDS011;2080;51.038;7.008;2023-04-01T03:48:42;362.13;;;221.53;;
4132;SDS011;2080;51.038;7.008;2023-04-01T03:51:07;318.13;;;127.63;;
4132;SDS011;2080;51.038;7.008;2023-04-01T03:53:35;316.23;;;129.00;;
4132;SDS011;2080;51.038;7.008;2023-04-01T03:56:04;343.67;;;151.33;;
4132;SDS011;2080;51.038;7.008;2023-04-01T03:58:35;356.43;;;198.60;;
4132;SDS011;2080;51.038;7.008;2023-04-01T04:01:12;340.53;;;157.83;;
4132;SDS011;2080;51.038;7.008;2023-04-01T04:03:42;331.00;;;143.00;;
4132;SDS011;2080;51.038;7.008;2023-04-01T04:06:12;365.33;;;189.67;;
4132;SDS011;2080;51.038;7.008;2023-04-01T04:08:38;330.70;;;118.43;;
4132;SDS011;2080;51.038;7.008;2023-04-01T04:11:09;376.07;;;200.60;;
4132;SDS011;2080;51.038;7.008;2023-04-01T04:13:34;325.50;;;103.33;;
4132;SDS011;2080;51.038;7.008;2023-04-01T04:16:02;325.13;;;115.60;;
4132;SDS011;2080;51.038;7.008;2023-04-01T04:18:28;301.50;;;87.77;;
4132;SDS011;2080;51.038;7.008;2023-04-01T04:20:54;333.63;;;142.93;;
4132;SDS011;2080;51.038;7.008;2023-04-01T04:23:20;362.17;;;181.60;;
4132;SDS011;2080;51.038;7.008;2023-04-01T04:25:54;335.77;;;147.53;;
4132;SDS011;2080;51.038;7.008;2023-04-01T04:28:19;324.70;;;146.17;;
4132;SDS011;2080;51.038;7.008;2023-04-01T04:30:45;307.83;;;94.47;;
4132;SDS011;2080;51.038;7.008;2023-04-01T04:33:10;321.77;;;107.97;;
4132;SDS011;2080;51.038;7.008;2023-04-01T04:35:36;378.37;;;205.03;;
4132;SDS011;2080;51.038;7.008;2023-04-01T04:38:03;337.37;;;115.53;;
4132;SDS011;2080;51.038;7.008;2023-04-01T04:40:29;365.13;;;180.53;;
4132;SDS011;2080;51.038;7.008;2023-04-01T04:42:57;323.50;;;120.00;;
4132;SDS011;2080;51.038;7.008;2023-04-01T04:45:22;377.10;;;229.57;;
4132;SDS011;2080;51.038;7.008;2023-04-01T04:47:50;361.47;;;217.43;;
4132;SDS011;2080;51.038;7.008;2023-04-01T04:50:17;340.30;;;114.70;;
4132;SDS011;2080;51.038;7.008;2023-04-01T04:52:45;311.50;;;110.53;;
4132;SDS011;2080;51.038;7.008;2023-04-01T04:55:13;340.17;;;124.40;;
4132;SDS011;2080;51.038;7.008;2023-04-01T04:57:39;347.23;;;171.37;;
4132;SDS011;2080;51.038;7.008;2023-04-01T05:00:08;338.43;;;130.33;;
4132;SDS011;2080;51.038;7.008;2023-04-01T05:02:35;344.30;;;124.03;;
4132;SDS011;2080;51.038;7.008;2023-04-01T05:05:00;403.70;;;236.70;;
4132;SDS011;2080;51.038;7.008;2023-04-01T05:07:26;319.57;;;120.27;;
4132;SDS011;2080;51.038;7.008;2023-04-01T05:09:51;425.63;;;293.70;;
4132;SDS011;2080;51.038;7.008;2023-04-01T05:12:17;385.50;;;229.70;;
4132;SDS011;2080;51.038;7.008;2023-04-01T05:14:42;360.13;;;156.03;;
4132;SDS011;2080;51.038;7.008;2023-04-01T05:17:11;391.40;;;151.73;;
4132;SDS011;2080;51.038;7.008;2023-04-01T05:19:40;368.83;;;163.97;;
4132;SDS011;2080;51.038;7.008;2023-04-01T05:22:05;390.53;;;198.13;;
4132;SDS011;2080;51.038;7.008;2023-04-01T05:24:31;384.03;;;186.53;;
4132;SDS011;2080;51.038;7.008;2023-04-01T05:26:57;377.27;;;177.00;;
4132;SDS011;2080;51.038;7.008;2023-04-01T05:29:24;360.63;;;185.67;;
4132;SDS011;2080;51.038;7.008;2023-04-01T05:31:49;348.53;;;114.17;;
4132;SDS011;2080;51.038;7.008;2023-04-01T05:34:17;406.77;;;235.20;;
4132;SDS011;2080;51.038;7.008;2023-04-01T05:36:43;386.60;;;179.47;;
4132;SDS011;2080;51.038;7.008;2023-04-01T05:39:09;363.40;;;145.37;;
4132;SDS011;2080;51.038;7.008;2023-04-01T05:41:35;341.03;;;129.30;;
4132;SDS011;2080;51.038;7.008;2023-04-01T05:44:00;350.20;;;153.07;;
4132;SDS011;2080;51.038;7.008;2023-04-01T05:46:26;399.87;;;240.13;;
4132;SDS011;2080;51.038;7.008;2023-04-01T05:48:56;353.23;;;163.33;;
4132;SDS011;2080;51.038;7.008;2023-04-01T05:51:22;493.90;;;428.80;;
4132;SDS011;2080;51.038;7.008;2023-04-01T05:53:50;365.77;;;200.83;;
4132;SDS011;2080;51.038;7.008;2023-04-01T05:56:18;334.80;;;122.47;;
4132;SDS011;2080;51.038;7.008;2023-04-01T05:58:43;339.33;;;113.00;;
4132;SDS011;2080;51.038;7.008;2023-04-01T06:01:15;379.23;;;188.37;;
4132;SDS011;2080;51.038;7.008;2023-04-01T06:03:40;347.77;;;144.90;;
4132;SDS011;2080;51.038;7.008;2023-04-01T06:06:10;341.33;;;123.10;;
4132;SDS011;2080;51.038;7.008;2023-04-01T06:08:45;336.80;;;136.63;;
4132;SDS011;2080;51.038;7.008;2023-04-01T06:11:19;341.83;;;130.00;;
4132;SDS011;2080;51.038;7.008;2023-04-01T06:22:28;347.57;;;156.87;;
4132;SDS011;2080;51.038;7.008;2023-04-01T06:31:00;395.13;;;217.23;;
4132;SDS011;2080;51.038;7.008;2023-04-01T06:47:56;378.37;;;160.00;;
4132;SDS011;2080;51.038;7.008;2023-04-01T06:50:56;360.90;;;140.13;;
4132;SDS011;2080;51.038;7.008;2023-04-01T06:56:28;339.70;;;140.77;;
4132;SDS011;2080;51.038;7.008;2023-04-01T07:01:45;329.20;;;122.23;;
4132;SDS011;2080;51.038;7.008;2023-04-01T07:04:14;332.67;;;124.10;;
4132;SDS011;2080;51.038;7.008;2023-04-01T07:06:52;331.27;;;124.30;;
4132;SDS011;2080;51.038;7.008;2023-04-01T07:09:22;324.63;;;120.60;;
4132;SDS011;2080;51.038;7.008;2023-04-01T07:11:53;335.77;;;147.23;;
4132;SDS011;2080;51.038;7.008;2023-04-01T07:14:27;325.07;;;112.60;;
4132;SDS011;2080;51.038;7.008;2023-04-01T07:17:31;332.77;;;128.83;;
4132;SDS011;2080;51.038;7.008;2023-04-01T07:19:56;341.23;;;141.03;;
4132;SDS011;2080;51.038;7.008;2023-04-01T07:28:05;329.43;;;120.40;;
4132;SDS011;2080;51.038;7.008;2023-04-01T07:33:48;379.83;;;190.13;;
4132;SDS011;2080;51.038;7.008;2023-04-01T07:39:17;336.87;;;132.63;;
4132;SDS011;2080;51.038;7.008;2023-04-01T07:42:09;353.93;;;161.10;;
4132;SDS011;2080;51.038;7.008;2023-04-01T07:47:45;339.03;;;159.47;;
4132;SDS011;2080;51.038;7.008;2023-04-01T07:53:07;334.50;;;142.90;;
4132;SDS011;2080;51.038;7.008;2023-04-01T08:01:32;375.00;;;215.83;;
4132;SDS011;2080;51.038;7.008;2023-04-01T08:04:06;412.70;;;281.23;;
4132;SDS011;2080;51.038;7.008;2023-04-01T08:06:54;399.20;;;227.03;;
4132;SDS011;2080;51.038;7.008;2023-04-01T08:09:36;542.37;;;451.47;;
4132;SDS011;2080;51.038;7.008;2023-04-01T08:12:12;413.07;;;277.27;;
4132;SDS011;2080;51.038;7.008;2023-04-01T08:15:06;365.90;;;213.13;;
4132;SDS011;2080;51.038;7.008;2023-04-01T08:23:51;383.70;;;229.07;;
4132;SDS011;2080;51.038;7.008;2023-04-01T08:29:04;351.67;;;174.60;;
4132;SDS011;2080;51.038;7.008;2023-04-01T08:34:17;352.13;;;166.93;;
4132;SDS011;2080;51.038;7.008;2023-04-01T08:36:51;410.47;;;282.10;;
4132;SDS011;2080;51.038;7.008;2023-04-01T08:56:30;368.30;;;204.33;;
4132;SDS011;2080;51.038;7.008;2023-04-01T09:12:43;413.63;;;242.40;;
4132;SDS011;2080;51.038;7.008;2023-04-01T09:37:18;343.53;;;164.27;;
4132;SDS011;2080;51.038;7.008;2023-04-01T09:42:45;411.07;;;265.10;;
4132;SDS011;2080;51.038;7.008;2023-04-01T09:45:46;348.80;;;173.37;;
4132;SDS011;2080;51.038;7.008;2023-04-01T10:02:50;338.37;;;154.10;;
4132;SDS011;2080;51.038;7.008;2023-04-01T10:27:47;400.87;;;247.27;;
4132;SDS011;2080;51.038;7.008;2023-04-01T11:00:20;351.17;;;138.67;;
4132;SDS011;2080;51.038;7.008;2023-04-01T11:03:24;479.23;;;373.43;;
4132;SDS011;2080;51.038;7.008;2023-04-01T11:06:21;303.23;;;96.60;;
4132;SDS011;2080;51.038;7.008;2023-04-01T11:29:15;497.77;;;406.87;;
4132;SDS011;2080;51.038;7.008;2023-04-01T11:37:17;346.63;;;167.90;;
4132;SDS011;2080;51.038;7.008;2023-04-01T11:50:52;346.47;;;135.00;;
4132;SDS011;2080;51.038;7.008;2023-04-01T11:53:34;352.67;;;164.17;;
4132;SDS011;2080;51.038;7.008;2023-04-01T11:59:04;346.60;;;143.03;;
4132;SDS011;2080;51.038;7.008;2023-04-01T12:13:09;325.00;;;106.23;;
4132;SDS011;2080;51.038;7.008;2023-04-01T12:18:42;310.30;;;108.47;;
4132;SDS011;2080;51.038;7.008;2023-04-01T13:00:18;343.53;;;156.20;;
4132;SDS011;2080;51.038;7.008;2023-04-01T13:16:38;278.90;;;65.83;;
4132;SDS011;2080;51.038;7.008;2023-04-01T13:19:17;335.73;;;139.17;;
4132;SDS011;2080;51.038;7.008;2023-04-01T13:24:33;317.70;;;105.97;;
4132;SDS011;2080;51.038;7.008;2023-04-01T13:27:13;288.37;;;73.90;;
4132;SDS011;2080;51.038;7.008;2023-04-01T13:29:54;345.90;;;139.00;;
4132;SDS011;2080;51.038;7.008;2023-04-01T13:35:04;312.40;;;102.33;;
4132;SDS011;2080;51.038;7.008;2023-04-01T13:42:50;422.33;;;290.00;;
4132;SDS011;2080;51.038;7.008;2023-04-01T13:45:23;485.23;;;387.57;;
4132;SDS011;2080;51.038;7.008;2023-04-01T13:53:40;344.30;;;161.07;;
4132;SDS011;2080;51.038;7.008;2023-04-01T14:13:34;383.47;;;232.97;;
4132;SDS011;2080;51.038;7.008;2023-04-01T14:19:02;331.27;;;106.10;;
4132;SDS011;2080;51.038;7.008;2023-04-01T14:21:55;368.73;;;185.30;;
4132;SDS011;2080;51.038;7.008;2023-04-01T14:24:50;341.47;;;153.73;;
4132;SDS011;2080;51.038;7.008;2023-04-01T14:27:37;357.77;;;172.90;;
4132;SDS011;2080;51.038;7.008;2023-04-01T14:30:27;331.43;;;125.30;;
4132;SDS011;2080;51.038;7.008;2023-04-01T14:33:12;309.73;;;106.50;;
4132;SDS011;2080;51.038;7.008;2023-04-01T14:35:55;314.70;;;121.63;;
4132;SDS011;2080;51.038;7.008;2023-04-01T14:49:14;336.90;;;124.97;;
4132;SDS011;2080;51.038;7.008;2023-04-01T14:51:46;366.07;;;176.27;;
4132;SDS011;2080;51.038;7.008;2023-04-01T14:54:21;361.17;;;169.00;;
4132;SDS011;2080;51.038;7.008;2023-04-01T14:59:58;400.83;;;229.33;;
4132;SDS011;2080;51.038;7.008;2023-04-01T15:05:27;338.93;;;125.73;;
4132;SDS011;2080;51.038;7.008;2023-04-01T15:08:05;324.17;;;134.67;;
4132;SDS011;2080;51.038;7.008;2023-04-01T15:11:01;313.60;;;106.47;;
4132;SDS011;2080;51.038;7.008;2023-04-01T15:13:46;329.87;;;133.87;;
4132;SDS011;2080;51.038;7.008;2023-04-01T15:24:22;376.60;;;177.70;;
4132;SDS011;2080;51.038;7.008;2023-04-01T15:32:16;366.43;;;177.30;;
4132;SDS011;2080;51.038;7.008;2023-04-01T15:35:03;339.73;;;137.37;;
4132;SDS011;2080;51.038;7.008;2023-04-01T15:40:20;330.80;;;134.63;;
4132;SDS011;2080;51.038;7.008;2023-04-01T16:02:29;327.70;;;121.90;;
4132;SDS011;2080;51.038;7.008;2023-04-01T16:07:45;329.03;;;144.67;;
4132;SDS011;2080;51.038;7.008;2023-04-01T16:11:02;338.53;;;159.17;;
4132;SDS011;2080;51.038;7.008;2023-04-01T16:16:46;316.50;;;118.70;;
4132;SDS011;2080;51.038;7.008;2023-04-01T16:22:06;307.40;;;91.20;;
4132;SDS011;2080;51.038;7.008;2023-04-01T16:27:41;337.93;;;136.83;;
4132;SDS011;2080;51.038;7.008;2023-04-01T16:35:44;332.70;;;136.97;;
4132;SDS011;2080;51.038;7.008;2023-04-01T16:38:18;308.40;;;102.60;;
4132;SDS011;2080;51.038;7.008;2023-04-01T16:43:44;281.73;;;131.60;;
4132;SDS011;2080;51.038;7.008;2023-04-01T16:46:32;223.43;;;41.20;;
4132;SDS011;2080;51.038;7.008;2023-04-01T16:57:31;286.80;;;170.30;;
4132;SDS011;2080;51.038;7.008;2023-04-01T17:00:28;255.47;;;77.90;;
4132;SDS011;2080;51.038;7.008;2023-04-01T17:06:07;219.63;;;38.87;;
4132;SDS011;2080;51.038;7.008;2023-04-01T17:11:13;290.67;;;167.00;;
4132;SDS011;2080;51.038;7.008;2023-04-01T17:13:46;228.80;;;49.43;;
4132;SDS011;2080;51.038;7.008;2023-04-01T17:27:38;213.43;;;33.37;;
4132;SDS011;2080;51.038;7.008;2023-04-01T17:41:42;219.27;;;41.10;;
4132;SDS011;2080;51.038;7.008;2023-04-01T17:46:57;272.37;;;105.63;;
4132;SDS011;2080;51.038;7.008;2023-04-01T17:58:22;219.50;;;35.07;;
4132;SDS011;2080;51.038;7.008;2023-04-01T18:01:08;242.27;;;61.07;;
4132;SDS011;2080;51.038;7.008;2023-04-01T18:06:55;347.50;;;146.03;;
4132;SDS011;2080;51.038;7.008;2023-04-01T18:22:32;267.83;;;135.70;;
4132;SDS011;2080;51.038;7.008;2023-04-01T18:25:13;277.30;;;144.33;;
4132;SDS011;2080;51.038;7.008;2023-04-01T18:28:11;228.70;;;39.87;;
4132;SDS011;2080;51.038;7.008;2023-04-01T18:30:44;212.63;;;44.80;;
4132;SDS011;2080;51.038;7.008;2023-04-01T18:35:49;209.77;;;31.83;;
4132;SDS011;2080;51.038;7.008;2023-04-01T18:38:27;203.60;;;28.10;;
4132;SDS011;2080;51.038;7.008;2023-04-01T18:46:45;209.07;;;36.10;;
4132;SDS011;2080;51.038;7.008;2023-04-01T18:49:15;216.13;;;31.07;;
4132;SDS011;2080;51.038;7.008;2023-04-01T19:05:56;234.73;;;43.83;;
4132;SDS011;2080;51.038;7.008;2023-04-01T19:08:31;232.27;;;84.47;;
4132;SDS011;2080;51.038;7.008;2023-04-01T19:21:47;208.07;;;34.43;;
4132;SDS011;2080;51.038;7.008;2023-04-01T19:24:34;228.47;;;44.07;;
4132;SDS011;2080;51.038;7.008;2023-04-01T19:32:40;212.60;;;30.17;;
4132;SDS011;2080;51.038;7.008;2023-04-01T19:37:59;209.67;;;32.83;;
4132;SDS011;2080;51.038;7.008;2023-04-01T19:49:02;250.27;;;83.53;;
4132;SDS011;2080;51.038;7.008;2023-04-01T20:04:37;207.20;;;26.60;;
4132;SDS011;2080;51.038;7.008;2023-04-01T20:15:20;214.23;;;48.93;;
4132;SDS011;2080;51.038;7.008;2023-04-01T20:17:55;212.60;;;28.23;;
4132;SDS011;2080;51.038;7.008;2023-04-01T20:20:26;206.70;;;30.37;;
4132;SDS011;2080;51.038;7.008;2023-04-01T20:23:06;231.57;;;59.93;;
4132;SDS011;2080;51.038;7.008;2023-04-01T20:36:36;190.10;;;59.13;;
4132;SDS011;2080;51.038;7.008;2023-04-01T20:42:49;203.77;;;32.70;;
4132;SDS011;2080;51.038;7.008;2023-04-01T20:50:51;207.97;;;31.97;;
4132;SDS011;2080;51.038;7.008;2023-04-01T21:04:37;209.70;;;31.43;;
4132;SDS011;2080;51.038;7.008;2023-04-01T21:12:56;206.80;;;29.67;;
4132;SDS011;2080;51.038;7.008;2023-04-01T21:17:58;233.60;;;72.17;;
4132;SDS011;2080;51.038;7.008;2023-04-01T21:54:24;201.47;;;32.10;;
4132;SDS011;2080;51.038;7.008;2023-04-01T22:08:39;225.70;;;32.77;;
4132;SDS011;2080;51.038;7.008;2023-04-01T22:19:26;208.20;;;28.90;;
4132;SDS011;2080;51.038;7.008;2023-04-01T22:27:21;206.23;;;24.13;;
4132;SDS011;2080;51.038;7.008;2023-04-01T22:30:09;205.00;;;23.43;;
4132;SDS011;2080;51.038;7.008;2023-04-01T22:43:42;208.40;;;24.83;;
4132;SDS011;2080;51.038;7.008;2023-04-01T22:54:24;204.03;;;28.17;;
4132;SDS011;2080;51.038;7.008;2023-04-01T23:02:00;212.97;;;29.67;;
4132;SDS011;2080;51.038;7.008;2023-04-01T23:04:41;206.57;;;27.47;;
4132;SDS011;2080;51.038;7.008;2023-04-01T23:07:21;207.80;;;28.30;;
4132;SDS011;2080;51.038;7.008;2023-04-01T23:09:58;205.90;;;26.57;;
4132;SDS011;2080;51.038;7.008;2023-04-01T23:12:29;209.07;;;29.10;;
4132;SDS011;2080;51.038;7.008;2023-04-01T23:14:59;204.90;;;31.07;;
4132;SDS011;2080;51.038;7.008;2023-04-01T23:22:54;206.80;;;26.97;;
4132;SDS011;2080;51.038;7.008;2023-04-01T23:33:10;206.00;;;24.40;;
4132;SDS011;2080;51.038;7.008;2023-04-01T23:38:23;221.13;;;31.60;;
4132;SDS011;2080;51.038;7.008;2023-04-01T23:40:53;211.97;;;27.90;;
4132;SDS011;2080;51.038;7.008;2023-04-01T23:43:26;208.23;;;29.87;;
4132;SDS011;2080;51.038;7.008;2023-04-01T23:45:56;205.93;;;28.03;;
4132;SDS011;2080;51.038;7.008;2023-04-01T23:48:26;216.17;;;27.67;;
4132;SDS011;2080;51.038;7.008;2023-04-01T23:50:56;219.07;;;33.90;;
4132;SDS011;2080;51.038;7.008;2023-04-01T23:53:26;215.70;;;33.53;;
4132;SDS011;2080;51.038;7.008;2023-04-01T23:56:01;211.23;;;27.37;;
4132;SDS011;2080;51.038;7.008;2023-04-01T23:58:41;212.73;;;30.77;;
